sensor_id;sensor_type;location;lat;lon;timestamp;temperature;humidity
11221;DHT22;8517;53.546;10.104;2022-11-14T00:01:12;10.80;99.90
11221;DHT22;8517;53.546;10.104;2022-11-14T00:03:39;10.80;99.90
11221;DHT22;8517;53.546;10.104;2022-11-14T00:06:07;10.80;99.90
11221;DHT22;8517;53.546;10.104;2022-11-14T00:08:35;10.80;99.90
11221;DHT22;8517;53.546;10.104;2022-11-14T00:11:02;10.80;99.90
11221;DHT22;8517;53.546;10.104;2022-11-14T00:13:29;10.80;99.90
11221;DHT22;8517;53.546;10.104;2022-11-14T00:15:56;10.70;99.90
11221;DHT22;8517;53.546;10.104;2022-11-14T00:18:23;10.70;99.90
11221;DHT22;8517;53.546;10.104;2022-11-14T00:20:50;10.70;99.90
11221;DHT22;8517;53.546;10.104;2022-11-14T00:23:18;10.60;99.90
11221;DHT22;8517;53.546;10.104;2022-11-14T00:25:47;10.60;99.90
11221;DHT22;8517;53.546;10.104;2022-11-14T00:28:14;10.60;99.90
11221;DHT22;8517;53.546;10.104;2022-11-14T00:30:44;10.50;99.90
11221;DHT22;8517;53.546;10.104;2022-11-14T00:33:11;10.50;99.90
11221;DHT22;8517;53.546;10.104;2022-11-14T00:35:38;10.30;99.90
11221;DHT22;8517;53.546;10.104;2022-11-14T00:38:05;10.40;99.90
11221;DHT22;8517;53.546;10.104;2022-11-14T00:40:32;10.30;99.90
11221;DHT22;8517;53.546;10.104;2022-11-14T00:43:00;10.40;99.90
11221;DHT22;8517;53.546;10.104;2022-11-14T00:45:26;10.40;99.90
11221;DHT22;8517;53.546;10.104;2022-11-14T00:47:53;10.30;99.90
11221;DHT22;8517;53.546;10.104;2022-11-14T00:50:20;10.30;99.90
11221;DHT22;8517;53.546;10.104;2022-11-14T00:52:47;10.40;99.90
11221;DHT22;8517;53.546;10.104;2022-11-14T00:55:14;10.30;99.90
11221;DHT22;8517;53.546;10.104;2022-11-14T00:57:40;10.30;99.90
11221;DHT22;8517;53.546;10.104;2022-11-14T01:00:11;10.20;99.90
11221;DHT22;8517;53.546;10.104;2022-11-14T01:02:38;10.10;99.90
11221;DHT22;8517;53.546;10.104;2022-11-14T01:05:06;10.20;99.90
11221;DHT22;8517;53.546;10.104;2022-11-14T01:07:32;10.10;99.90
11221;DHT22;8517;53.546;10.104;2022-11-14T01:09:59;10.20;99.90
11221;DHT22;8517;53.546;10.104;2022-11-14T01:12:26;10.20;99.90
11221;DHT22;8517;53.546;10.104;2022-11-14T01:14:53;10.20;99.90
11221;DHT22;8517;53.546;10.104;2022-11-14T01:17:21;10.20;99.90
11221;DHT22;8517;53.546;10.104;2022-11-14T01:19:48;10.20;99.90
11221;DHT22;8517;53.546;10.104;2022-11-14T01:22:14;10.10;99.90
11221;DHT22;8517;53.546;10.104;2022-11-14T01:24:41;10.20;99.90
11221;DHT22;8517;53.546;10.104;2022-11-14T01:27:08;10.20;99.90
11221;DHT22;8517;53.546;10.104;2022-11-14T01:29:35;10.20;99.90
11221;DHT22;8517;53.546;10.104;2022-11-14T01:32:02;10.30;99.90
11221;DHT22;8517;53.546;10.104;2022-11-14T01:34:30;10.30;99.90
11221;DHT22;8517;53.546;10.104;2022-11-14T01:36:57;10.30;99.90
11221;DHT22;8517;53.546;10.104;2022-11-14T01:39:25;10.40;99.90
11221;DHT22;8517;53.546;10.104;2022-11-14T01:41:52;10.30;99.90
11221;DHT22;8517;53.546;10.104;2022-11-14T01:47:22;10.30;99.90
11221;DHT22;8517;53.546;10.104;2022-11-14T01:49:52;10.30;99.90
11221;DHT22;8517;53.546;10.104;2022-11-14T01:52:21;10.30;99.90
11221;DHT22;8517;53.546;10.104;2022-11-14T01:55:01;10.20;99.90
11221;DHT22;8517;53.546;10.104;2022-11-14T01:57:33;10.20;99.90
11221;DHT22;8517;53.546;10.104;2022-11-14T02:00:08;10.20;99.90
11221;DHT22;8517;53.546;10.104;2022-11-14T02:02:35;10.30;99.90
11221;DHT22;8517;53.546;10.104;2022-11-14T02:05:06;10.30;99.90
11221;DHT22;8517;53.546;10.104;2022-11-14T02:07:37;10.20;99.90
11221;DHT22;8517;53.546;10.104;2022-11-14T02:10:07;10.20;99.90
11221;DHT22;8517;53.546;10.104;2022-11-14T02:12:35;10.20;99.90
11221;DHT22;8517;53.546;10.104;2022-11-14T02:15:03;10.20;99.90
11221;DHT22;8517;53.546;10.104;2022-11-14T02:17:31;10.10;99.90
11221;DHT22;8517;53.546;10.104;2022-11-14T02:23:03;10.10;99.90
11221;DHT22;8517;53.546;10.104;2022-11-14T02:25:29;10.10;99.90
11221;DHT22;8517;53.546;10.104;2022-11-14T02:27:57;10.00;99.90
11221;DHT22;8517;53.546;10.104;2022-11-14T02:30:25;10.10;99.90
11221;DHT22;8517;53.546;10.104;2022-11-14T02:32:58;10.10;99.90
11221;DHT22;8517;53.546;10.104;2022-11-14T02:35:27;10.10;99.90
11221;DHT22;8517;53.546;10.104;2022-11-14T02:37:54;10.10;99.90
11221;DHT22;8517;53.546;10.104;2022-11-14T02:40:43;10.10;99.90
11221;DHT22;8517;53.546;10.104;2022-11-14T02:43:14;10.10;99.90
11221;DHT22;8517;53.546;10.104;2022-11-14T02:45:41;10.10;99.90
11221;DHT22;8517;53.546;10.104;2022-11-14T02:48:07;10.10;99.90
11221;DHT22;8517;53.546;10.104;2022-11-14T02:50:34;10.10;99.90
11221;DHT22;8517;53.546;10.104;2022-11-14T02:53:01;10.10;99.90
11221;DHT22;8517;53.546;10.104;2022-11-14T02:55:28;10.10;99.90
11221;DHT22;8517;53.546;10.104;2022-11-14T02:57:56;10.10;99.90
11221;DHT22;8517;53.546;10.104;2022-11-14T03:00:23;10.10;99.90
11221;DHT22;8517;53.546;10.104;2022-11-14T03:02:51;10.20;99.90
11221;DHT22;8517;53.546;10.104;2022-11-14T03:05:33;10.20;99.90
11221;DHT22;8517;53.546;10.104;2022-11-14T03:08:04;10.20;99.90
11221;DHT22;8517;53.546;10.104;2022-11-14T03:10:31;10.20;99.90
11221;DHT22;8517;53.546;10.104;2022-11-14T03:12:59;10.20;99.90
11221;DHT22;8517;53.546;10.104;2022-11-14T03:15:26;10.20;99.90
11221;DHT22;8517;53.546;10.104;2022-11-14T03:17:58;10.20;99.90
11221;DHT22;8517;53.546;10.104;2022-11-14T03:20:30;10.20;99.90
11221;DHT22;8517;53.546;10.104;2022-11-14T03:22:57;10.10;99.90
11221;DHT22;8517;53.546;10.104;2022-11-14T03:25:24;10.20;99.90
11221;DHT22;8517;53.546;10.104;2022-11-14T03:27:51;10.20;99.90
11221;DHT22;8517;53.546;10.104;2022-11-14T03:30:19;10.10;99.90
11221;DHT22;8517;53.546;10.104;2022-11-14T03:32:46;10.00;99.90
11221;DHT22;8517;53.546;10.104;2022-11-14T03:35:12;10.00;99.90
11221;DHT22;8517;53.546;10.104;2022-11-14T03:37:39;10.00;99.90
11221;DHT22;8517;53.546;10.104;2022-11-14T03:40:07;10.00;99.90
11221;DHT22;8517;53.546;10.104;2022-11-14T03:42:35;10.00;99.90
11221;DHT22;8517;53.546;10.104;2022-11-14T03:45:02;10.00;99.90
11221;DHT22;8517;53.546;10.104;2022-11-14T03:47:30;10.00;99.90
11221;DHT22;8517;53.546;10.104;2022-11-14T03:49:57;10.00;99.90
11221;DHT22;8517;53.546;10.104;2022-11-14T03:52:23;10.00;99.90
11221;DHT22;8517;53.546;10.104;2022-11-14T03:54:51;10.10;99.90
11221;DHT22;8517;53.546;10.104;2022-11-14T03:57:18;10.10;99.90
11221;DHT22;8517;53.546;10.104;2022-11-14T03:59:44;10.10;99.90
11221;DHT22;8517;53.546;10.104;2022-11-14T04:02:11;10.10;99.90
11221;DHT22;8517;53.546;10.104;2022-11-14T04:04:39;10.10;99.90
11221;DHT22;8517;53.546;10.104;2022-11-14T04:07:06;10.10;99.90
11221;DHT22;8517;53.546;10.104;2022-11-14T04:09:33;10.10;99.90
11221;DHT22;8517;53.546;10.104;2022-11-14T04:12:00;10.00;99.90
11221;DHT22;8517;53.546;10.104;2022-11-14T04:14:27;10.00;99.90
11221;DHT22;8517;53.546;10.104;2022-11-14T04:16:53;10.00;99.90
11221;DHT22;8517;53.546;10.104;2022-11-14T04:19:20;10.00;99.90
11221;DHT22;8517;53.546;10.104;2022-11-14T04:21:49;10.00;99.90
11221;DHT22;8517;53.546;10.104;2022-11-14T04:24:15;10.00;99.90
11221;DHT22;8517;53.546;10.104;2022-11-14T04:26:42;9.90;99.90
11221;DHT22;8517;53.546;10.104;2022-11-14T04:29:09;10.00;99.90
11221;DHT22;8517;53.546;10.104;2022-11-14T04:31:36;10.00;99.90
11221;DHT22;8517;53.546;10.104;2022-11-14T04:34:03;9.90;99.90
11221;DHT22;8517;53.546;10.104;2022-11-14T04:36:29;9.80;99.90
11221;DHT22;8517;53.546;10.104;2022-11-14T04:38:58;9.90;99.90
11221;DHT22;8517;53.546;10.104;2022-11-14T04:41:33;9.90;99.90
11221;DHT22;8517;53.546;10.104;2022-11-14T04:44:00;9.80;99.90
11221;DHT22;8517;53.546;10.104;2022-11-14T04:46:27;9.80;99.90
11221;DHT22;8517;53.546;10.104;2022-11-14T04:48:54;9.70;99.90
11221;DHT22;8517;53.546;10.104;2022-11-14T04:51:21;9.80;99.90
11221;DHT22;8517;53.546;10.104;2022-11-14T04:53:50;9.80;99.90
11221;DHT22;8517;53.546;10.104;2022-11-14T04:56:28;9.80;99.90
11221;DHT22;8517;53.546;10.104;2022-11-14T04:59:08;9.80;99.90
11221;DHT22;8517;53.546;10.104;2022-11-14T05:01:52;9.80;99.90
11221;DHT22;8517;53.546;10.104;2022-11-14T05:04:19;9.80;99.90
11221;DHT22;8517;53.546;10.104;2022-11-14T05:06:45;9.80;99.90
11221;DHT22;8517;53.546;10.104;2022-11-14T05:09:12;9.80;99.90
11221;DHT22;8517;53.546;10.104;2022-11-14T05:11:40;9.80;99.90
11221;DHT22;8517;53.546;10.104;2022-11-14T05:14:07;9.80;99.90
11221;DHT22;8517;53.546;10.104;2022-11-14T05:16:34;9.80;99.90
11221;DHT22;8517;53.546;10.104;2022-11-14T05:19:01;9.80;99.90
11221;DHT22;8517;53.546;10.104;2022-11-14T05:21:28;9.80;99.90
11221;DHT22;8517;53.546;10.104;2022-11-14T05:23:55;9.80;99.90
11221;DHT22;8517;53.546;10.104;2022-11-14T05:26:22;9.80;99.90
11221;DHT22;8517;53.546;10.104;2022-11-14T05:28:50;9.80;99.90
11221;DHT22;8517;53.546;10.104;2022-11-14T05:31:17;9.80;99.90
11221;DHT22;8517;53.546;10.104;2022-11-14T05:33:44;9.80;99.90
11221;DHT22;8517;53.546;10.104;2022-11-14T05:36:13;9.80;99.90
11221;DHT22;8517;53.546;10.104;2022-11-14T05:38:40;9.80;99.90
11221;DHT22;8517;53.546;10.104;2022-11-14T05:41:08;9.80;99.90
11221;DHT22;8517;53.546;10.104;2022-11-14T05:43:36;9.80;99.90
11221;DHT22;8517;53.546;10.104;2022-11-14T05:46:06;9.80;99.90
11221;DHT22;8517;53.546;10.104;2022-11-14T05:48:33;9.80;99.90
11221;DHT22;8517;53.546;10.104;2022-11-14T05:51:02;9.80;99.90
11221;DHT22;8517;53.546;10.104;2022-11-14T05:53:30;9.90;99.90
11221;DHT22;8517;53.546;10.104;2022-11-14T05:55:59;9.90;99.90
11221;DHT22;8517;53.546;10.104;2022-11-14T05:58:27;9.80;99.90
11221;DHT22;8517;53.546;10.104;2022-11-14T06:01:01;9.80;99.90
11221;DHT22;8517;53.546;10.104;2022-11-14T06:03:31;9.70;99.90
11221;DHT22;8517;53.546;10.104;2022-11-14T06:05:59;9.60;99.90
11221;DHT22;8517;53.546;10.104;2022-11-14T06:08:27;9.70;99.90
11221;DHT22;8517;53.546;10.104;2022-11-14T06:10:55;9.60;99.90
11221;DHT22;8517;53.546;10.104;2022-11-14T06:13:22;9.60;99.90
11221;DHT22;8517;53.546;10.104;2022-11-14T06:15:49;9.60;99.90
11221;DHT22;8517;53.546;10.104;2022-11-14T06:18:16;9.60;99.90
11221;DHT22;8517;53.546;10.104;2022-11-14T06:20:44;9.60;99.90
11221;DHT22;8517;53.546;10.104;2022-11-14T06:23:13;9.60;99.90
11221;DHT22;8517;53.546;10.104;2022-11-14T06:25:40;9.60;99.90
11221;DHT22;8517;53.546;10.104;2022-11-14T06:28:07;9.60;99.90
11221;DHT22;8517;53.546;10.104;2022-11-14T06:30:34;9.50;99.90
11221;DHT22;8517;53.546;10.104;2022-11-14T06:33:00;9.60;99.90
11221;DHT22;8517;53.546;10.104;2022-11-14T06:35:27;9.50;99.90
11221;DHT22;8517;53.546;10.104;2022-11-14T06:38:04;9.60;99.90
11221;DHT22;8517;53.546;10.104;2022-11-14T06:40:44;9.50;99.90
11221;DHT22;8517;53.546;10.104;2022-11-14T06:43:11;9.60;99.90
11221;DHT22;8517;53.546;10.104;2022-11-14T06:45:38;9.60;99.90
11221;DHT22;8517;53.546;10.104;2022-11-14T06:48:06;9.60;99.90
11221;DHT22;8517;53.546;10.104;2022-11-14T06:50:33;9.60;99.90
11221;DHT22;8517;53.546;10.104;2022-11-14T06:53:03;9.50;99.90
11221;DHT22;8517;53.546;10.104;2022-11-14T06:55:29;9.60;99.90
11221;DHT22;8517;53.546;10.104;2022-11-14T06:57:56;9.60;99.90
11221;DHT22;8517;53.546;10.104;2022-11-14T07:00:23;9.60;99.90
11221;DHT22;8517;53.546;10.104;2022-11-14T07:02:50;9.60;99.90
11221;DHT22;8517;53.546;10.104;2022-11-14T07:05:17;9.50;99.90
11221;DHT22;8517;53.546;10.104;2022-11-14T07:07:44;9.60;99.90
11221;DHT22;8517;53.546;10.104;2022-11-14T07:10:12;9.60;99.90
11221;DHT22;8517;53.546;10.104;2022-11-14T07:12:39;9.60;99.90
11221;DHT22;8517;53.546;10.104;2022-11-14T07:15:22;9.60;99.90
11221;DHT22;8517;53.546;10.104;2022-11-14T07:17:49;9.60;99.90
11221;DHT22;8517;53.546;10.104;2022-11-14T07:20:16;9.60;99.90
11221;DHT22;8517;53.546;10.104;2022-11-14T07:22:46;9.60;99.90
11221;DHT22;8517;53.546;10.104;2022-11-14T07:25:15;9.60;99.90
11221;DHT22;8517;53.546;10.104;2022-11-14T07:27:41;9.50;99.90
11221;DHT22;8517;53.546;10.104;2022-11-14T07:30:09;9.60;99.90
11221;DHT22;8517;53.546;10.104;2022-11-14T07:39:20;9.60;99.90
11221;DHT22;8517;53.546;10.104;2022-11-14T07:41:48;9.50;99.90
11221;DHT22;8517;53.546;10.104;2022-11-14T07:44:15;9.50;99.90
11221;DHT22;8517;53.546;10.104;2022-11-14T07:46:42;9.50;99.90
11221;DHT22;8517;53.546;10.104;2022-11-14T07:49:09;9.50;99.90
11221;DHT22;8517;53.546;10.104;2022-11-14T07:51:35;9.50;99.90
11221;DHT22;8517;53.546;10.104;2022-11-14T07:54:03;9.60;99.90
11221;DHT22;8517;53.546;10.104;2022-11-14T07:56:30;9.60;99.90
11221;DHT22;8517;53.546;10.104;2022-11-14T07:58:58;9.60;99.90
11221;DHT22;8517;53.546;10.104;2022-11-14T08:01:25;9.60;99.90
11221;DHT22;8517;53.546;10.104;2022-11-14T08:03:52;9.60;99.90
11221;DHT22;8517;53.546;10.104;2022-11-14T08:06:18;9.60;99.90
11221;DHT22;8517;53.546;10.104;2022-11-14T08:08:48;9.60;99.90
11221;DHT22;8517;53.546;10.104;2022-11-14T08:11:17;9.60;99.90
11221;DHT22;8517;53.546;10.104;2022-11-14T08:14:06;9.60;99.90
11221;DHT22;8517;53.546;10.104;2022-11-14T08:16:33;9.60;99.90
11221;DHT22;8517;53.546;10.104;2022-11-14T08:19:00;9.60;99.90
11221;DHT22;8517;53.546;10.104;2022-11-14T08:21:27;9.60;99.90
11221;DHT22;8517;53.546;10.104;2022-11-14T08:23:54;9.60;99.90
11221;DHT22;8517;53.546;10.104;2022-11-14T08:26:21;9.60;99.90
11221;DHT22;8517;53.546;10.104;2022-11-14T08:31:44;9.60;99.90
11221;DHT22;8517;53.546;10.104;2022-11-14T08:34:11;9.60;99.90
11221;DHT22;8517;53.546;10.104;2022-11-14T08:36:38;9.60;99.90
11221;DHT22;8517;53.546;10.104;2022-11-14T08:39:05;9.50;99.90
11221;DHT22;8517;53.546;10.104;2022-11-14T08:41:32;9.50;99.90
11221;DHT22;8517;53.546;10.104;2022-11-14T08:43:58;9.50;99.90
11221;DHT22;8517;53.546;10.104;2022-11-14T08:46:25;9.50;99.90
11221;DHT22;8517;53.546;10.104;2022-11-14T08:48:54;9.50;99.90
11221;DHT22;8517;53.546;10.104;2022-11-14T08:51:21;9.50;99.90
11221;DHT22;8517;53.546;10.104;2022-11-14T08:53:48;9.50;99.90
11221;DHT22;8517;53.546;10.104;2022-11-14T08:56:16;9.40;99.90
11221;DHT22;8517;53.546;10.104;2022-11-14T08:58:43;9.50;99.90
11221;DHT22;8517;53.546;10.104;2022-11-14T09:01:10;9.50;99.90
11221;DHT22;8517;53.546;10.104;2022-11-14T09:03:37;9.50;99.90
11221;DHT22;8517;53.546;10.104;2022-11-14T09:06:05;9.50;99.90
11221;DHT22;8517;53.546;10.104;2022-11-14T09:08:32;9.50;99.90
11221;DHT22;8517;53.546;10.104;2022-11-14T09:11:00;9.60;99.90
11221;DHT22;8517;53.546;10.104;2022-11-14T09:13:27;9.60;99.90
11221;DHT22;8517;53.546;10.104;2022-11-14T09:15:54;9.60;99.90
11221;DHT22;8517;53.546;10.104;2022-11-14T09:18:21;9.50;99.90
11221;DHT22;8517;53.546;10.104;2022-11-14T09:20:48;9.60;99.90
11221;DHT22;8517;53.546;10.104;2022-11-14T09:23:18;9.60;99.90
11221;DHT22;8517;53.546;10.104;2022-11-14T09:25:45;9.60;99.90
11221;DHT22;8517;53.546;10.104;2022-11-14T09:28:14;9.60;99.90
11221;DHT22;8517;53.546;10.104;2022-11-14T09:30:46;9.60;99.90
11221;DHT22;8517;53.546;10.104;2022-11-14T09:33:13;9.60;99.90
11221;DHT22;8517;53.546;10.104;2022-11-14T09:35:39;9.60;99.90
11221;DHT22;8517;53.546;10.104;2022-11-14T09:38:09;9.70;99.90
11221;DHT22;8517;53.546;10.104;2022-11-14T09:40:48;9.70;99.90
11221;DHT22;8517;53.546;10.104;2022-11-14T09:43:29;9.70;99.90
11221;DHT22;8517;53.546;10.104;2022-11-14T09:46:00;9.70;99.90
11221;DHT22;8517;53.546;10.104;2022-11-14T09:48:28;9.80;99.90
11221;DHT22;8517;53.546;10.104;2022-11-14T09:51:04;9.70;99.90
11221;DHT22;8517;53.546;10.104;2022-11-14T09:53:35;9.80;99.90
11221;DHT22;8517;53.546;10.104;2022-11-14T09:59:38;9.90;99.90
11221;DHT22;8517;53.546;10.104;2022-11-14T10:02:17;9.80;99.90
11221;DHT22;8517;53.546;10.104;2022-11-14T10:04:55;9.90;99.90
11221;DHT22;8517;53.546;10.104;2022-11-14T10:07:30;9.90;99.90
11221;DHT22;8517;53.546;10.104;2022-11-14T10:10:05;9.90;99.90
11221;DHT22;8517;53.546;10.104;2022-11-14T10:12:42;10.00;99.90
11221;DHT22;8517;53.546;10.104;2022-11-14T10:15:16;10.00;99.90
11221;DHT22;8517;53.546;10.104;2022-11-14T10:17:56;10.00;99.90
11221;DHT22;8517;53.546;10.104;2022-11-14T10:20:31;10.10;99.90
11221;DHT22;8517;53.546;10.104;2022-11-14T10:23:20;10.10;99.90
11221;DHT22;8517;53.546;10.104;2022-11-14T10:25:54;10.10;99.90
11221;DHT22;8517;53.546;10.104;2022-11-14T10:28:45;10.10;99.90
11221;DHT22;8517;53.546;10.104;2022-11-14T10:31:25;10.10;99.90
11221;DHT22;8517;53.546;10.104;2022-11-14T10:34:00;10.20;99.90
11221;DHT22;8517;53.546;10.104;2022-11-14T10:36:46;10.20;99.90
11221;DHT22;8517;53.546;10.104;2022-11-14T10:39:18;10.20;99.90
11221;DHT22;8517;53.546;10.104;2022-11-14T10:41:49;10.30;99.90
11221;DHT22;8517;53.546;10.104;2022-11-14T10:44:21;10.30;99.90
11221;DHT22;8517;53.546;10.104;2022-11-14T10:49:51;10.40;99.90
11221;DHT22;8517;53.546;10.104;2022-11-14T10:52:21;10.40;99.90
11221;DHT22;8517;53.546;10.104;2022-11-14T10:54:55;10.50;99.90
11221;DHT22;8517;53.546;10.104;2022-11-14T10:57:24;10.50;99.90
11221;DHT22;8517;53.546;10.104;2022-11-14T10:59:54;10.60;99.90
11221;DHT22;8517;53.546;10.104;2022-11-14T11:02:22;10.60;99.90
11221;DHT22;8517;53.546;10.104;2022-11-14T11:04:49;10.70;99.90
11221;DHT22;8517;53.546;10.104;2022-11-14T11:07:20;10.80;99.90
11221;DHT22;8517;53.546;10.104;2022-11-14T11:10:19;10.80;99.90
11221;DHT22;8517;53.546;10.104;2022-11-14T11:13:04;10.90;99.90
11221;DHT22;8517;53.546;10.104;2022-11-14T11:15:38;10.90;99.90
11221;DHT22;8517;53.546;10.104;2022-11-14T11:18:23;11.10;99.90
11221;DHT22;8517;53.546;10.104;2022-11-14T11:21:02;11.10;99.90
11221;DHT22;8517;53.546;10.104;2022-11-14T11:23:30;11.40;99.90
11221;DHT22;8517;53.546;10.104;2022-11-14T11:25:59;11.70;99.90
11221;DHT22;8517;53.546;10.104;2022-11-14T11:28:31;11.80;99.90
11221;DHT22;8517;53.546;10.104;2022-11-14T11:31:00;11.90;99.90
11221;DHT22;8517;53.546;10.104;2022-11-14T11:33:29;12.00;99.90
11221;DHT22;8517;53.546;10.104;2022-11-14T11:35:58;12.00;99.90
11221;DHT22;8517;53.546;10.104;2022-11-14T11:38:27;11.90;99.90
11221;DHT22;8517;53.546;10.104;2022-11-14T11:41:01;11.90;99.90
11221;DHT22;8517;53.546;10.104;2022-11-14T11:43:35;11.90;99.90
11221;DHT22;8517;53.546;10.104;2022-11-14T11:46:10;11.90;99.90
11221;DHT22;8517;53.546;10.104;2022-11-14T11:48:40;11.80;99.90
11221;DHT22;8517;53.546;10.104;2022-11-14T11:51:12;11.80;99.90
11221;DHT22;8517;53.546;10.104;2022-11-14T11:53:45;11.70;99.90
11221;DHT22;8517;53.546;10.104;2022-11-14T11:56:35;11.60;99.90
11221;DHT22;8517;53.546;10.104;2022-11-14T11:59:18;11.60;99.90
11221;DHT22;8517;53.546;10.104;2022-11-14T12:01:52;11.70;99.90
11221;DHT22;8517;53.546;10.104;2022-11-14T12:04:31;11.70;99.90
11221;DHT22;8517;53.546;10.104;2022-11-14T12:07:04;11.70;99.90
11221;DHT22;8517;53.546;10.104;2022-11-14T12:09:37;11.70;99.90
11221;DHT22;8517;53.546;10.104;2022-11-14T12:12:09;11.70;99.90
11221;DHT22;8517;53.546;10.104;2022-11-14T12:14:56;11.70;99.90
11221;DHT22;8517;53.546;10.104;2022-11-14T12:17:59;11.70;99.90
11221;DHT22;8517;53.546;10.104;2022-11-14T12:20:44;11.80;99.90
11221;DHT22;8517;53.546;10.104;2022-11-14T12:23:33;11.90;99.90
11221;DHT22;8517;53.546;10.104;2022-11-14T12:26:27;11.90;99.90
11221;DHT22;8517;53.546;10.104;2022-11-14T12:29:16;11.90;99.90
11221;DHT22;8517;53.546;10.104;2022-11-14T12:31:51;11.90;99.90
11221;DHT22;8517;53.546;10.104;2022-11-14T12:34:31;12.00;99.90
11221;DHT22;8517;53.546;10.104;2022-11-14T12:37:45;12.00;99.90
11221;DHT22;8517;53.546;10.104;2022-11-14T12:39:57;12.10;99.90
11221;DHT22;8517;53.546;10.104;2022-11-14T12:42:25;12.10;99.90
11221;DHT22;8517;53.546;10.104;2022-11-14T12:44:52;12.20;99.90
11221;DHT22;8517;53.546;10.104;2022-11-14T12:47:21;12.20;99.90
11221;DHT22;8517;53.546;10.104;2022-11-14T12:50:27;12.20;99.90
11221;DHT22;8517;53.546;10.104;2022-11-14T12:52:57;12.20;99.90
11221;DHT22;8517;53.546;10.104;2022-11-14T12:55:52;12.20;99.90
11221;DHT22;8517;53.546;10.104;2022-11-14T12:58:27;12.30;99.90
11221;DHT22;8517;53.546;10.104;2022-11-14T13:01:05;12.40;99.90
11221;DHT22;8517;53.546;10.104;2022-11-14T13:03:47;12.40;99.90
11221;DHT22;8517;53.546;10.104;2022-11-14T13:06:23;12.50;99.90
11221;DHT22;8517;53.546;10.104;2022-11-14T13:09:31;12.60;99.90
11221;DHT22;8517;53.546;10.104;2022-11-14T13:12:28;12.50;99.90
11221;DHT22;8517;53.546;10.104;2022-11-14T13:15:27;12.60;99.90
11221;DHT22;8517;53.546;10.104;2022-11-14T13:18:22;12.70;99.90
11221;DHT22;8517;53.546;10.104;2022-11-14T13:21:18;12.70;99.90
11221;DHT22;8517;53.546;10.104;2022-11-14T13:27:23;12.80;99.90
11221;DHT22;8517;53.546;10.104;2022-11-14T13:29:50;12.80;99.90
11221;DHT22;8517;53.546;10.104;2022-11-14T13:35:38;12.80;99.90
11221;DHT22;8517;53.546;10.104;2022-11-14T13:42:10;12.80;99.90
11221;DHT22;8517;53.546;10.104;2022-11-14T13:48:10;12.70;99.90
11221;DHT22;8517;53.546;10.104;2022-11-14T13:50:41;12.60;99.90
11221;DHT22;8517;53.546;10.104;2022-11-14T13:53:12;12.60;99.90
11221;DHT22;8517;53.546;10.104;2022-11-14T13:56:04;12.50;99.90
11221;DHT22;8517;53.546;10.104;2022-11-14T13:58:48;12.50;99.90
11221;DHT22;8517;53.546;10.104;2022-11-14T14:01:33;12.50;99.90
11221;DHT22;8517;53.546;10.104;2022-11-14T14:04:16;12.50;99.90
11221;DHT22;8517;53.546;10.104;2022-11-14T14:07:10;12.50;99.90
11221;DHT22;8517;53.546;10.104;2022-11-14T14:09:47;12.40;99.90
11221;DHT22;8517;53.546;10.104;2022-11-14T14:12:32;12.40;99.90
11221;DHT22;8517;53.546;10.104;2022-11-14T14:15:19;12.40;99.90
11221;DHT22;8517;53.546;10.104;2022-11-14T14:17:57;12.40;99.90
11221;DHT22;8517;53.546;10.104;2022-11-14T14:20:33;12.40;99.90
11221;DHT22;8517;53.546;10.104;2022-11-14T14:23:15;12.30;99.90
11221;DHT22;8517;53.546;10.104;2022-11-14T14:26:15;12.30;99.90
11221;DHT22;8517;53.546;10.104;2022-11-14T14:29:17;12.30;99.90
11221;DHT22;8517;53.546;10.104;2022-11-14T14:31:48;12.30;99.90
11221;DHT22;8517;53.546;10.104;2022-11-14T14:34:23;12.30;99.90
11221;DHT22;8517;53.546;10.104;2022-11-14T14:36:54;12.30;99.90
11221;DHT22;8517;53.546;10.104;2022-11-14T14:39:22;12.20;99.90
11221;DHT22;8517;53.546;10.104;2022-11-14T14:41:51;12.20;99.90
11221;DHT22;8517;53.546;10.104;2022-11-14T14:44:24;12.20;99.90
11221;DHT22;8517;53.546;10.104;2022-11-14T14:46:53;12.20;99.90
11221;DHT22;8517;53.546;10.104;2022-11-14T14:49:22;12.20;99.90
11221;DHT22;8517;53.546;10.104;2022-11-14T14:52:20;12.10;99.90
11221;DHT22;8517;53.546;10.104;2022-11-14T14:55:05;12.00;99.90
11221;DHT22;8517;53.546;10.104;2022-11-14T14:57:33;12.00;99.90
11221;DHT22;8517;53.546;10.104;2022-11-14T15:00:02;12.00;99.90
11221;DHT22;8517;53.546;10.104;2022-11-14T15:02:31;11.90;99.90
11221;DHT22;8517;53.546;10.104;2022-11-14T15:04:58;11.90;99.90
11221;DHT22;8517;53.546;10.104;2022-11-14T15:07:28;11.80;99.90
11221;DHT22;8517;53.546;10.104;2022-11-14T15:09:59;11.80;99.90
11221;DHT22;8517;53.546;10.104;2022-11-14T15:12:28;11.70;99.90
11221;DHT22;8517;53.546;10.104;2022-11-14T15:14:58;11.70;99.90
11221;DHT22;8517;53.546;10.104;2022-11-14T15:17:26;11.60;99.90
11221;DHT22;8517;53.546;10.104;2022-11-14T15:19:54;11.60;99.90
11221;DHT22;8517;53.546;10.104;2022-11-14T15:22:39;11.60;99.90
11221;DHT22;8517;53.546;10.104;2022-11-14T15:25:20;11.50;99.90
11221;DHT22;8517;53.546;10.104;2022-11-14T15:27:50;11.50;99.90
11221;DHT22;8517;53.546;10.104;2022-11-14T15:30:23;11.40;99.90
11221;DHT22;8517;53.546;10.104;2022-11-14T15:32:51;11.40;99.90
11221;DHT22;8517;53.546;10.104;2022-11-14T15:35:29;11.40;99.90
11221;DHT22;8517;53.546;10.104;2022-11-14T15:38:04;11.30;99.90
11221;DHT22;8517;53.546;10.104;2022-11-14T15:40:33;11.30;99.90
11221;DHT22;8517;53.546;10.104;2022-11-14T15:43:34;11.30;99.90
11221;DHT22;8517;53.546;10.104;2022-11-14T15:46:02;11.30;99.90
11221;DHT22;8517;53.546;10.104;2022-11-14T15:48:30;11.20;99.90
11221;DHT22;8517;53.546;10.104;2022-11-14T15:51:14;11.10;99.90
11221;DHT22;8517;53.546;10.104;2022-11-14T15:53:44;11.10;99.90
11221;DHT22;8517;53.546;10.104;2022-11-14T15:56:15;11.10;99.90
11221;DHT22;8517;53.546;10.104;2022-11-14T15:58:50;11.10;99.90
11221;DHT22;8517;53.546;10.104;2022-11-14T16:01:22;11.00;99.90
11221;DHT22;8517;53.546;10.104;2022-11-14T16:03:50;11.00;99.90
11221;DHT22;8517;53.546;10.104;2022-11-14T16:06:18;11.00;99.90
11221;DHT22;8517;53.546;10.104;2022-11-14T16:08:45;11.00;99.90
11221;DHT22;8517;53.546;10.104;2022-11-14T16:11:12;11.00;99.90
11221;DHT22;8517;53.546;10.104;2022-11-14T16:13:39;11.00;99.90
11221;DHT22;8517;53.546;10.104;2022-11-14T16:16:07;10.90;99.90
11221;DHT22;8517;53.546;10.104;2022-11-14T16:18:34;10.90;99.90
11221;DHT22;8517;53.546;10.104;2022-11-14T16:21:01;10.90;99.90
11221;DHT22;8517;53.546;10.104;2022-11-14T16:23:29;10.90;99.90
11221;DHT22;8517;53.546;10.104;2022-11-14T16:25:56;10.80;99.90
11221;DHT22;8517;53.546;10.104;2022-11-14T16:28:23;10.80;99.90
11221;DHT22;8517;53.546;10.104;2022-11-14T16:30:49;10.80;99.90
11221;DHT22;8517;53.546;10.104;2022-11-14T16:33:16;10.80;99.90
11221;DHT22;8517;53.546;10.104;2022-11-14T16:35:43;10.80;99.90
11221;DHT22;8517;53.546;10.104;2022-11-14T16:38:11;10.80;99.90